createdAt,value
2022-07-29T00:02:27.918Z,101483.63
2022-07-29T00:04:54.886Z,101482.41
2022-07-29T00:07:21.727Z,101479.97
2022-07-29T00:09:51.676Z,101480.19
2022-07-29T00:12:26.306Z,101490.31
2022-07-29T00:14:57.722Z,101482.97
2022-07-29T00:17:25.445Z,101471.88
2022-07-29T00:19:52.493Z,101482.19
2022-07-29T00:22:20.182Z,101472.06
2022-07-29T00:24:49.546Z,101480.38
2022-07-29T00:27:16.310Z,101475.72
2022-07-29T00:29:43.056Z,101463.91
2022-07-29T00:32:09.828Z,101460.06
2022-07-29T00:34:55.030Z,101466.56
2022-07-29T00:37:22.158Z,101461.06
2022-07-29T00:39:48.811Z,101457.25
2022-07-29T00:42:15.605Z,101447.25
2022-07-29T00:44:42.593Z,101462.28
2022-07-29T00:47:13.507Z,101455.78
2022-07-29T00:49:42.137Z,101459.66
2022-07-29T00:52:10.309Z,101452.94
2022-07-29T00:54:44.191Z,101453.94
2022-07-29T00:57:12.219Z,101448.66
2022-07-29T00:59:38.901Z,101445.03
2022-07-29T01:02:05.659Z,101449.09
2022-07-29T01:04:33.444Z,101455.38
2022-07-29T01:07:03.683Z,101459.63
2022-07-29T01:09:46.222Z,101450.53
2022-07-29T01:12:25.713Z,101437.13
2022-07-29T01:14:53.588Z,101448.88
2022-07-29T01:17:32.470Z,101449.28
2022-07-29T01:20:11.626Z,101433.03
2022-07-29T01:22:47.225Z,101434.69
2022-07-29T01:25:28.715Z,101435.47
2022-07-29T01:28:07.066Z,101435.47
2022-07-29T01:30:39.506Z,101425.34
2022-07-29T01:33:34.722Z,101421.31
2022-07-29T01:36:05.345Z,101415.81
2022-07-29T01:38:32.421Z,101418.47
2022-07-29T01:41:13.887Z,101413.22
2022-07-29T01:43:49.780Z,101408.94
2022-07-29T01:46:22.371Z,101401.44
2022-07-29T01:48:56.119Z,101402.25
2022-07-29T01:51:31.302Z,101403.28
2022-07-29T01:54:16.730Z,101406.94
2022-07-29T01:56:45.971Z,101403.09
2022-07-29T01:59:12.873Z,101408.56
2022-07-29T02:01:43.928Z,101410.56
2022-07-29T02:04:26.651Z,101402.84
2022-07-29T02:07:00.223Z,101399.81
2022-07-29T02:09:28.336Z,101402.25
2022-07-29T02:11:57.158Z,101391.69
2022-07-29T02:14:25.525Z,101411.34
2022-07-29T02:16:55.253Z,101399.00
2022-07-29T02:19:24.400Z,101401.41
2022-07-29T02:21:54.724Z,101403.41
2022-07-29T02:24:24.445Z,101396.13
2022-07-29T02:26:53.752Z,101400.38
2022-07-29T02:29:23.522Z,101405.00
2022-07-29T02:31:51.910Z,101403.81
2022-07-29T02:34:20.474Z,101406.63
2022-07-29T02:36:50.478Z,101401.34
2022-07-29T02:39:18.239Z,101399.31
2022-07-29T02:41:51.016Z,101396.06
2022-07-29T02:44:20.453Z,101388.31
2022-07-29T02:46:54.322Z,101391.56
2022-07-29T02:49:32.958Z,101399.25
2022-07-29T02:52:04.268Z,101408.13
2022-07-29T02:54:45.437Z,101399.91
2022-07-29T02:57:19.934Z,101406.13
2022-07-29T02:59:51.104Z,101400.84
2022-07-29T03:02:18.656Z,101399.22
2022-07-29T03:04:47.265Z,101404.50
2022-07-29T03:07:16.626Z,101393.97
2022-07-29T03:09:43.956Z,101399.00
2022-07-29T03:12:11.960Z,101402.03
2022-07-29T03:14:39.529Z,101404.47
2022-07-29T03:17:06.544Z,101393.63
2022-07-29T03:19:35.233Z,101394.19
2022-07-29T03:22:02.337Z,101393.59
2022-07-29T03:24:32.394Z,101395.75
2022-07-29T03:26:59.948Z,101395.47
2022-07-29T03:29:33.450Z,101394.03
2022-07-29T03:32:08.334Z,101398.41
2022-07-29T03:34:36.782Z,101389.72
2022-07-29T03:37:03.557Z,101401.25
2022-07-29T03:39:34.112Z,101399.59
2022-07-29T03:42:02.110Z,101389.16
2022-07-29T03:44:30.219Z,101385.34
2022-07-29T03:47:00.974Z,101383.84
2022-07-29T03:49:28.944Z,101387.25
2022-07-29T03:51:55.739Z,101382.28
2022-07-29T03:54:23.429Z,101378.69
2022-07-29T03:56:53.696Z,101375.41
2022-07-29T03:59:23.368Z,101381.06
2022-07-29T04:01:51.063Z,101386.13
2022-07-29T04:04:18.322Z,101381.22
2022-07-29T04:06:48.401Z,101376.31
2022-07-29T04:09:15.674Z,101382.00
2022-07-29T04:12:01.795Z,101393.75
2022-07-29T04:14:29.907Z,101390.03
2022-07-29T04:16:56.648Z,101397.81
2022-07-29T04:19:23.657Z,101404.16
2022-07-29T04:21:50.593Z,101401.09
2022-07-29T04:24:17.854Z,101405.16
2022-07-29T04:26:46.646Z,101402.72
2022-07-29T04:29:15.108Z,101399.06
2022-07-29T04:31:42.503Z,101412.25
2022-07-29T04:34:10.064Z,101399.13
2022-07-29T04:36:36.773Z,101402.00
2022-07-29T04:39:04.140Z,101385.13
2022-07-29T04:41:32.606Z,101410.28
2022-07-29T04:44:02.023Z,101398.81
2022-07-29T04:46:29.338Z,101395.34
2022-07-29T04:48:56.443Z,101404.66
2022-07-29T04:51:23.366Z,101390.06
2022-07-29T04:53:50.082Z,101398.81
2022-07-29T04:56:16.879Z,101412.75
2022-07-29T04:58:43.523Z,101403.13
2022-07-29T05:01:10.321Z,101411.22
2022-07-29T05:03:37.219Z,101400.59
2022-07-29T05:06:04.139Z,101408.38
2022-07-29T05:08:30.795Z,101415.13
2022-07-29T05:10:57.445Z,101414.50
2022-07-29T05:13:24.479Z,101417.38
2022-07-29T05:15:51.247Z,101408.00
2022-07-29T05:18:18.044Z,101413.34
2022-07-29T05:20:44.897Z,101415.72
2022-07-29T05:23:13.817Z,101413.31
2022-07-29T05:25:43.719Z,101422.91
2022-07-29T05:28:12.414Z,101418.69
2022-07-29T05:30:39.664Z,101418.66
2022-07-29T05:33:06.584Z,101426.63
2022-07-29T05:35:38.041Z,101433.56
2022-07-29T05:38:08.157Z,101451.13
2022-07-29T05:40:36.110Z,101443.75
2022-07-29T05:43:03.120Z,101446.59
2022-07-29T05:45:29.831Z,101441.72
2022-07-29T05:47:56.612Z,101446.59
2022-07-29T05:50:23.247Z,101452.84
2022-07-29T05:52:50.036Z,101463.06
2022-07-29T05:55:16.784Z,101464.47
2022-07-29T05:57:44.476Z,101461.41
2022-07-29T06:00:11.624Z,101462.34
2022-07-29T06:02:41.439Z,101467.91
2022-07-29T06:05:12.873Z,101467.09
2022-07-29T06:07:49.990Z,101458.91
2022-07-29T06:10:17.906Z,101454.34
2022-07-29T06:12:44.853Z,101456.81
2022-07-29T06:15:11.734Z,101459.28
2022-07-29T06:17:38.336Z,101457.25
2022-07-29T06:20:27.258Z,101454.88
2022-07-29T06:22:54.138Z,101458.16
2022-07-29T06:25:20.898Z,101460.63
2022-07-29T06:27:47.607Z,101446.50
2022-07-29T06:30:14.330Z,101459.50
2022-07-29T06:32:43.258Z,101463.53
2022-07-29T06:35:38.008Z,101461.72
2022-07-29T06:37:58.846Z,101463.72
2022-07-29T06:40:45.757Z,101457.06
2022-07-29T06:43:12.536Z,101461.97
2022-07-29T06:45:42.263Z,101460.56
2022-07-29T06:48:09.957Z,101457.22
2022-07-29T06:50:36.687Z,101457.72
2022-07-29T06:53:04.240Z,101463.38
2022-07-29T06:55:31.194Z,101471.75
2022-07-29T06:57:58.154Z,101470.28
2022-07-29T07:00:24.979Z,101474.47
2022-07-29T07:02:51.846Z,101472.34
2022-07-29T07:05:18.769Z,101471.53
2022-07-29T07:07:45.470Z,101474.84
2022-07-29T07:10:12.195Z,101471.44
2022-07-29T07:12:39.009Z,101470.34
2022-07-29T07:15:06.703Z,101474.25
2022-07-29T07:17:33.623Z,101473.91
2022-07-29T07:20:00.316Z,101472.75
2022-07-29T07:22:27.125Z,101489.25
2022-07-29T07:24:53.799Z,101476.53
2022-07-29T07:27:20.623Z,101491.28
2022-07-29T07:29:47.266Z,101475.03
2022-07-29T07:32:17.606Z,101483.13
2022-07-29T07:34:44.695Z,101498.03
2022-07-29T07:37:12.497Z,101482.59
2022-07-29T07:39:40.390Z,101495.69
2022-07-29T07:42:07.243Z,101485.50
2022-07-29T07:44:46.279Z,101484.84
2022-07-29T07:47:21.418Z,101486.00
2022-07-29T07:49:49.463Z,101480.06
2022-07-29T07:52:21.542Z,101484.41
2022-07-29T07:54:49.692Z,101478.59
2022-07-29T07:57:16.766Z,101470.81
2022-07-29T07:59:46.409Z,101477.97
2022-07-29T08:02:13.303Z,101481.00
2022-07-29T08:04:41.751Z,101468.03
2022-07-29T08:07:09.900Z,101468.00
2022-07-29T08:09:37.071Z,101465.69
2022-07-29T08:12:04.944Z,101459.44
2022-07-29T08:14:34.350Z,101457.44
2022-07-29T08:17:01.214Z,101463.28
2022-07-29T08:19:28.326Z,101476.28
2022-07-29T08:21:55.413Z,101472.78
2022-07-29T08:24:41.597Z,101478.13
2022-07-29T08:27:26.927Z,101460.91
2022-07-29T08:29:56.913Z,101462.53
2022-07-29T08:32:50.926Z,101466.28
2022-07-29T08:35:10.692Z,101473.97
2022-07-29T08:37:37.322Z,101477.84
2022-07-29T08:40:04.555Z,101474.94
2022-07-29T08:42:31.547Z,101473.59
2022-07-29T08:44:58.976Z,101475.44
2022-07-29T08:47:27.422Z,101475.78
2022-07-29T08:49:54.204Z,101485.94
2022-07-29T08:52:22.797Z,101469.31
2022-07-29T08:54:49.932Z,101471.94
2022-07-29T08:57:17.469Z,101482.72
2022-07-29T08:59:47.675Z,101483.28
2022-07-29T09:02:21.166Z,101485.16
2022-07-29T09:04:48.465Z,101495.63
2022-07-29T09:07:19.470Z,101490.88
2022-07-29T09:09:46.598Z,101490.28
2022-07-29T09:12:13.601Z,101476.09
2022-07-29T09:14:55.753Z,101495.03
2022-07-29T09:17:47.541Z,101490.53
2022-07-29T09:20:23.312Z,101486.84
2022-07-29T09:22:51.868Z,101489.69
2022-07-29T09:25:34.822Z,101488.44
2022-07-29T09:28:09.245Z,101488.75
2022-07-29T09:30:36.914Z,101491.72
2022-07-29T09:33:04.480Z,101490.22
2022-07-29T09:35:31.939Z,101484.53
2022-07-29T09:37:59.077Z,101481.97
2022-07-29T09:40:28.844Z,101482.66
2022-07-29T09:42:59.510Z,101485.69
2022-07-29T09:45:35.669Z,101492.56
2022-07-29T09:48:15.591Z,101490.66
2022-07-29T09:50:45.002Z,101491.44
2022-07-29T09:53:12.475Z,101481.56
2022-07-29T09:55:52.216Z,101492.91
2022-07-29T09:58:23.570Z,101478.84
2022-07-29T10:00:52.409Z,101485.97
2022-07-29T10:03:20.071Z,101478.84
2022-07-29T10:05:47.513Z,101481.09
2022-07-29T10:08:14.270Z,101476.78
2022-07-29T10:10:43.134Z,101484.09
2022-07-29T10:13:16.092Z,101478.59
2022-07-29T10:15:46.179Z,101476.09
2022-07-29T10:18:15.508Z,101469.97
2022-07-29T10:20:42.461Z,101476.50
2022-07-29T10:23:10.393Z,101480.63
2022-07-29T10:25:40.000Z,101479.66
2022-07-29T10:28:07.484Z,101470.38
2022-07-29T10:30:34.912Z,101461.38
2022-07-29T10:33:35.663Z,101477.53
2022-07-29T10:36:08.542Z,101479.84
2022-07-29T10:38:35.942Z,101481.91
2022-07-29T10:41:29.100Z,101483.88
2022-07-29T10:44:12.375Z,101457.94
2022-07-29T10:46:45.119Z,101465.78
2022-07-29T10:49:27.227Z,101477.63
2022-07-29T10:52:06.037Z,101464.94
2022-07-29T10:54:52.048Z,101462.97
2022-07-29T10:57:53.042Z,101462.94
2022-07-29T11:00:17.039Z,101461.41
2022-07-29T11:02:46.332Z,101465.84
2022-07-29T11:05:19.652Z,101463.97
2022-07-29T11:08:26.018Z,101464.34
2022-07-29T11:11:15.862Z,101468.88
2022-07-29T11:13:44.211Z,101458.66
2022-07-29T11:16:11.349Z,101462.91
2022-07-29T11:19:13.220Z,101466.13
2022-07-29T11:21:54.030Z,101458.78
2022-07-29T11:24:33.140Z,101455.81
2022-07-29T11:27:09.327Z,101467.03
2022-07-29T11:30:02.219Z,101460.03
2022-07-29T11:32:41.516Z,101452.09
2022-07-29T11:35:37.017Z,101454.41
2022-07-29T11:38:33.975Z,101454.75
2022-07-29T11:41:27.304Z,101456.75
2022-07-29T11:43:59.157Z,101472.94
2022-07-29T11:46:54.051Z,101459.78
2022-07-29T11:49:32.275Z,101457.09
2022-07-29T11:52:04.667Z,101452.06
2022-07-29T11:54:38.841Z,101453.38
2022-07-29T11:57:29.498Z,101460.41
2022-07-29T12:00:12.497Z,101452.19
2022-07-29T12:02:43.405Z,101448.50
2022-07-29T12:05:12.074Z,101462.69
2022-07-29T12:07:41.312Z,101454.19
2022-07-29T12:10:20.201Z,101448.88
2022-07-29T12:12:57.168Z,101462.22
2022-07-29T12:15:31.500Z,101459.47
2022-07-29T12:18:16.114Z,101459.81
2022-07-29T12:20:45.978Z,101461.75
2022-07-29T12:23:16.190Z,101456.69
2022-07-29T12:25:45.155Z,101468.38
2022-07-29T12:28:26.406Z,101460.44
2022-07-29T12:30:53.975Z,101468.38
2022-07-29T12:33:30.533Z,101458.75
2022-07-29T12:36:10.375Z,101444.47
2022-07-29T12:38:41.817Z,101456.66
2022-07-29T12:41:08.695Z,101440.31
2022-07-29T12:43:35.667Z,101448.69
2022-07-29T12:46:14.747Z,101450.88
2022-07-29T12:48:44.328Z,101454.38
2022-07-29T12:51:13.387Z,101455.75
2022-07-29T12:53:40.472Z,101446.53
2022-07-29T12:56:40.689Z,101450.03
2022-07-29T12:59:17.029Z,101430.88
2022-07-29T13:01:44.874Z,101444.81
2022-07-29T13:04:12.063Z,101444.00
2022-07-29T13:06:45.899Z,101453.13
2022-07-29T13:09:19.217Z,101438.69
2022-07-29T13:11:52.193Z,101444.31
2022-07-29T13:14:35.282Z,101440.56
2022-07-29T13:17:14.121Z,101455.28
2022-07-29T13:19:50.838Z,101448.91
2022-07-29T13:22:23.436Z,101437.66
2022-07-29T13:24:50.494Z,101448.44
2022-07-29T13:27:18.430Z,101443.06
2022-07-29T13:29:45.455Z,101446.00
2022-07-29T13:32:14.265Z,101449.41
2022-07-29T13:34:41.955Z,101453.16
2022-07-29T13:37:08.861Z,101449.97
2022-07-29T13:39:35.771Z,101456.69
2022-07-29T13:42:02.591Z,101462.78
2022-07-29T13:44:29.817Z,101455.63
2022-07-29T13:46:57.020Z,101454.56
2022-07-29T13:49:23.910Z,101438.50
2022-07-29T13:51:51.130Z,101450.19
2022-07-29T13:54:17.977Z,101440.38
2022-07-29T13:56:44.916Z,101454.03
2022-07-29T13:59:13.983Z,101450.56
2022-07-29T14:01:43.243Z,101447.31
2022-07-29T14:04:13.189Z,101444.31
2022-07-29T14:06:40.570Z,101437.56
2022-07-29T14:09:09.511Z,101439.22
2022-07-29T14:11:36.669Z,101445.59
2022-07-29T14:14:03.604Z,101445.22
2022-07-29T14:16:30.496Z,101440.13
2022-07-29T14:18:57.556Z,101450.31
2022-07-29T14:21:25.134Z,101455.13
2022-07-29T14:23:53.081Z,101444.66
2022-07-29T14:26:24.135Z,101431.81
2022-07-29T14:28:52.956Z,101431.75
2022-07-29T14:31:19.930Z,101433.66
2022-07-29T14:33:49.213Z,101444.66
2022-07-29T14:36:16.317Z,101452.59
2022-07-29T14:38:44.458Z,101440.56
2022-07-29T14:41:11.329Z,101447.25
2022-07-29T14:43:38.427Z,101443.59
2022-07-29T14:46:08.337Z,101442.53
2022-07-29T14:48:36.135Z,101442.56
2022-07-29T14:51:05.025Z,101433.69
2022-07-29T14:53:32.772Z,101441.66
2022-07-29T14:56:15.036Z,101439.72
2022-07-29T14:58:51.622Z,101442.16
2022-07-29T15:01:22.125Z,101453.25
2022-07-29T15:03:59.313Z,101452.75
2022-07-29T15:06:28.010Z,101448.84
2022-07-29T15:08:55.037Z,101445.66
2022-07-29T15:11:21.929Z,101448.34
2022-07-29T15:13:48.846Z,101436.56
2022-07-29T15:16:17.924Z,101435.28
2022-07-29T15:18:48.856Z,101445.13
2022-07-29T15:21:16.911Z,101442.25
2022-07-29T15:23:43.572Z,101437.19
2022-07-29T15:26:10.682Z,101453.78
2022-07-29T15:28:37.536Z,101451.91
2022-07-29T15:31:05.038Z,101443.91
2022-07-29T15:33:32.404Z,101444.16
2022-07-29T15:36:00.062Z,101432.63
2022-07-29T15:38:28.834Z,101451.53
2022-07-29T15:40:59.512Z,101434.91
2022-07-29T15:43:29.740Z,101439.13
2022-07-29T15:46:15.211Z,101440.19
2022-07-29T15:48:42.176Z,101450.38
2022-07-29T15:51:10.032Z,101442.06
2022-07-29T15:53:38.320Z,101449.22
2022-07-29T15:56:06.630Z,101456.66
2022-07-29T15:58:34.666Z,101441.50
2022-07-29T16:01:01.662Z,101432.19
2022-07-29T16:03:28.796Z,101442.56
2022-07-29T16:05:55.663Z,101445.44
2022-07-29T16:08:23.190Z,101450.78
2022-07-29T16:10:50.225Z,101441.78
2022-07-29T16:13:18.782Z,101442.53
2022-07-29T16:15:46.293Z,101439.38
2022-07-29T16:18:29.953Z,101435.69
2022-07-29T16:21:01.791Z,101419.28
2022-07-29T16:23:29.273Z,101422.47
2022-07-29T16:26:05.154Z,101435.88
2022-07-29T16:28:34.755Z,101433.28
2022-07-29T16:31:01.653Z,101433.91
2022-07-29T16:33:54.205Z,101433.78
2022-07-29T16:36:21.338Z,101435.38
2022-07-29T16:38:48.994Z,101440.75
2022-07-29T16:41:15.997Z,101443.78
2022-07-29T16:43:43.622Z,101460.81
2022-07-29T16:46:13.200Z,101439.22
2022-07-29T16:48:47.728Z,101450.94
2022-07-29T16:51:17.636Z,101440.59
2022-07-29T16:53:57.283Z,101448.72
2022-07-29T16:56:25.077Z,101450.16
2022-07-29T16:58:51.963Z,101437.78
2022-07-29T17:01:19.090Z,101446.03
2022-07-29T17:04:05.777Z,101451.38
2022-07-29T17:06:35.156Z,101439.50
2022-07-29T17:09:04.119Z,101443.50
2022-07-29T17:11:51.941Z,101443.22
2022-07-29T17:14:17.770Z,101438.94
2022-07-29T17:17:00.314Z,101449.84
2022-07-29T17:19:33.961Z,101457.38
2022-07-29T17:22:09.221Z,101454.03
2022-07-29T17:24:40.825Z,101460.28
2022-07-29T17:27:07.934Z,101457.81
2022-07-29T17:29:37.510Z,101455.16
2022-07-29T17:32:07.426Z,101462.56
2022-07-29T17:34:35.391Z,101462.59
2022-07-29T17:37:02.197Z,101460.38
2022-07-29T17:39:29.137Z,101461.13
2022-07-29T17:41:55.932Z,101464.06
2022-07-29T17:44:30.533Z,101461.09
2022-07-29T17:47:20.021Z,101466.44
2022-07-29T17:49:47.464Z,101459.47
2022-07-29T17:52:18.584Z,101472.78
2022-07-29T17:54:48.534Z,101471.38
2022-07-29T17:57:24.862Z,101477.41
2022-07-29T17:59:57.062Z,101479.34
2022-07-29T18:02:30.833Z,101483.88
2022-07-29T18:05:20.113Z,101465.72
2022-07-29T18:08:00.377Z,101476.50
2022-07-29T18:10:55.768Z,101468.91
2022-07-29T18:13:37.167Z,101473.97
2022-07-29T18:16:13.558Z,101461.00
2022-07-29T18:19:29.845Z,101468.50
2022-07-29T18:22:23.190Z,101483.19
2022-07-29T18:28:16.073Z,101470.28
2022-07-29T18:30:52.510Z,101470.44
2022-07-29T18:33:34.808Z,101469.41
2022-07-29T18:39:26.746Z,101467.25
2022-07-29T18:42:03.365Z,101491.81
2022-07-29T18:47:34.361Z,101472.03
2022-07-29T18:50:37.727Z,101483.13
2022-07-29T18:53:13.236Z,101483.03
2022-07-29T18:55:40.104Z,101506.03
2022-07-29T18:58:06.936Z,101494.88
2022-07-29T19:00:33.622Z,101511.31
2022-07-29T19:03:00.441Z,101506.44
2022-07-29T19:05:27.372Z,101512.47
2022-07-29T19:07:56.153Z,101508.91
2022-07-29T19:10:22.982Z,101510.50
2022-07-29T19:12:50.352Z,101517.19
2022-07-29T19:15:20.468Z,101517.66
2022-07-29T19:17:48.644Z,101524.59
2022-07-29T19:20:16.083Z,101525.66
2022-07-29T19:22:43.909Z,101528.03
2022-07-29T19:25:11.236Z,101534.16
2022-07-29T19:27:38.169Z,101533.22
2022-07-29T19:30:07.061Z,101525.34
2022-07-29T19:32:37.061Z,101537.44
2022-07-29T19:35:24.085Z,101541.25
2022-07-29T19:37:52.307Z,101544.31
2022-07-29T19:40:19.373Z,101558.38
2022-07-29T19:42:48.139Z,101550.66
2022-07-29T19:45:14.816Z,101554.84
2022-07-29T19:47:41.620Z,101559.97
2022-07-29T19:50:09.242Z,101567.00
2022-07-29T19:52:36.510Z,101572.22
2022-07-29T19:55:07.652Z,101571.34
2022-07-29T19:57:40.946Z,101574.44
2022-07-29T20:00:11.346Z,101577.81
2022-07-29T20:02:39.485Z,101578.56
2022-07-29T20:05:07.267Z,101594.53
2022-07-29T20:07:34.461Z,101591.41
2022-07-29T20:10:01.533Z,101599.03
2022-07-29T20:12:28.237Z,101594.03
2022-07-29T20:14:55.068Z,101594.50
2022-07-29T20:17:24.748Z,101595.56
2022-07-29T20:19:51.973Z,101583.63
2022-07-29T20:22:21.014Z,101594.44
2022-07-29T20:24:58.144Z,101595.25
2022-07-29T20:27:29.568Z,101590.03
2022-07-29T20:29:56.259Z,101596.91
2022-07-29T20:32:23.166Z,101590.97
2022-07-29T20:34:49.908Z,101603.31
2022-07-29T20:37:18.421Z,101605.00
2022-07-29T20:39:47.834Z,101600.53
2022-07-29T20:42:15.721Z,101599.63
2022-07-29T20:44:42.593Z,101609.59
2022-07-29T20:47:09.897Z,101614.00
2022-07-29T20:49:37.047Z,101609.69
2022-07-29T20:52:04.370Z,101608.47
2022-07-29T20:54:31.245Z,101604.25
2022-07-29T20:56:58.604Z,101604.84
2022-07-29T20:59:26.171Z,101608.19
2022-07-29T21:01:55.193Z,101612.25
2022-07-29T21:04:22.066Z,101608.22
2022-07-29T21:06:58.096Z,101614.19
2022-07-29T21:09:24.898Z,101611.97
2022-07-29T21:11:51.721Z,101617.28
2022-07-29T21:14:41.449Z,101608.94
2022-07-29T21:17:08.270Z,101619.38
2022-07-29T21:19:35.527Z,101609.63
2022-07-29T21:22:04.799Z,101614.50
2022-07-29T21:24:32.032Z,101627.16
2022-07-29T21:27:21.045Z,101612.75
2022-07-29T21:29:49.189Z,101620.47
2022-07-29T21:32:27.569Z,101610.09
2022-07-29T21:34:56.700Z,101617.00
2022-07-29T21:37:23.438Z,101611.50
2022-07-29T21:39:50.252Z,101615.59
2022-07-29T21:42:17.001Z,101617.84
2022-07-29T21:44:44.310Z,101611.16
2022-07-29T21:47:11.837Z,101607.09
2022-07-29T21:49:40.232Z,101592.06
2022-07-29T21:52:07.971Z,101612.78
2022-07-29T21:54:35.650Z,101612.38
2022-07-29T21:57:02.704Z,101616.25
2022-07-29T21:59:29.821Z,101614.41
2022-07-29T22:02:00.774Z,101612.38
2022-07-29T22:04:49.950Z,101615.63
2022-07-29T22:07:16.801Z,101618.47
2022-07-29T22:09:44.644Z,101619.25
2022-07-29T22:12:11.456Z,101615.81
2022-07-29T22:14:38.329Z,101611.75
2022-07-29T22:17:06.300Z,101608.91
2022-07-29T22:19:34.680Z,101605.25
2022-07-29T22:22:01.622Z,101603.63
2022-07-29T22:24:28.312Z,101604.84
2022-07-29T22:26:55.173Z,101615.63
2022-07-29T22:29:21.896Z,101611.16
2022-07-29T22:31:48.883Z,101606.06
2022-07-29T22:34:15.700Z,101619.91
2022-07-29T22:36:43.357Z,101623.31
2022-07-29T22:39:10.213Z,101606.69
2022-07-29T22:41:37.087Z,101627.38
2022-07-29T22:44:04.080Z,101635.72
2022-07-29T22:46:31.106Z,101643.81
2022-07-29T22:48:58.364Z,101637.31
2022-07-29T22:51:25.611Z,101643.44
2022-07-29T22:53:52.643Z,101642.59
2022-07-29T22:56:20.385Z,101647.06
2022-07-29T22:58:47.388Z,101642.19
2022-07-29T23:01:14.349Z,101640.75
2022-07-29T23:03:41.517Z,101646.66
2022-07-29T23:06:18.236Z,101652.34
2022-07-29T23:08:45.093Z,101645.84
2022-07-29T23:11:12.047Z,101647.06
2022-07-29T23:13:38.844Z,101647.63
2022-07-29T23:16:06.047Z,101648.03
2022-07-29T23:18:32.831Z,101651.06
2022-07-29T23:20:59.641Z,101647.03
2022-07-29T23:23:26.403Z,101653.09
2022-07-29T23:25:59.190Z,101654.31
2022-07-29T23:28:26.037Z,101646.19
2022-07-29T23:30:52.740Z,101642.50
2022-07-29T23:33:19.628Z,101642.88
2022-07-29T23:35:46.305Z,101640.06
2022-07-29T23:38:13.169Z,101644.50
2022-07-29T23:40:40.678Z,101639.66
2022-07-29T23:43:08.595Z,101634.16
2022-07-29T23:45:42.896Z,101626.66
2022-07-29T23:48:11.943Z,101631.06
2022-07-29T23:50:38.644Z,101636.09
2022-07-29T23:53:05.523Z,101625.31
2022-07-29T23:55:38.616Z,101624.25
2022-07-29T23:58:05.558Z,101636.72
